• Join FlightAware (Why Join?)
  • Login
  • US Flag 
12:46AM EDT


 

Airport Tracker/Info


-or-


 

Live Flight TrackerFlight Track Log ✈ N1926A ✈ 10-May-2013 ✈ 41A - KMGM

Flight Track Log - Related Links

Times and Time Zones

All times are in EDT time to prevent confusion due to time zone crossing. See the N1926A flight status page for this flight to view local times or setup timezone preferences in your user account.

Time Position Orientation Groundspeed Altitude Reporting Facility
EDT Latitude Longitude Course Direction KTS MPH feet Rate Location/Type
03:17PM 32.4197 -86.0622 246° West  Level FlightAware Approximate
03:18PM 32.4045 -86.1017 246° West  Level FlightAware Approximate
03:19PM 32.3893 -86.1413 246° West  Level FlightAware Approximate
03:20PM 32.3741 -86.1808 245° Southwest  Level FlightAware Approximate
03:21PM 32.3639 -86.2213 235° Southwest  Level FlightAware Approximate
03:22PM 32.3426 -86.2567 235° Southwest  Level FlightAware Approximate
03:23PM 32.3214 -86.2922 235° Southwest  Level FlightAware Approximate
03:24PM 32.3101 -86.3329 257° West  Level FlightAware Approximate
03:25PM 32.3016 -86.3752 257° West  Level FlightAware Approximate
03:26PM 32.3000 -86.3833 257° West  Level FlightAware Approximate
03:27PM 32.3006 -86.3940 257° West  Level Estimated
03:28PM 32.3006 -86.3940 257° West  Level Estimated
03:29PM 32.3006 -86.3940 257° West  Level Estimated
03:30PM 32.3006 -86.3940 257° West  Level Estimated
03:31PM 32.3006 -86.3940 257° West  Level Estimated
03:32PM 32.3006 -86.3940 257° West  Level Estimated
03:33PM 32.3006 -86.3940 257° West  Level Estimated
03:34PM 32.3006 -86.3940 257° West  Level Estimated
03:35PM 32.3006 -86.3940 257° West  Level Estimated
03:36PM 32.3006 -86.3940 257° West  Level Estimated
03:37PM 32.3006 -86.3940 257° West  Level Estimated
03:38PM 32.3006 -86.3940 257° West  Level Estimated
03:39PM 32.3006 -86.3940 257° West  Level Estimated
03:40PM 32.3006 -86.3940 257° West  Level Estimated
03:41PM 32.3006 -86.3940 257° West  Level Estimated